createdAt,value
2023-02-28T00:01:32.022Z,95.51
2023-02-28T00:03:59.961Z,95.44
2023-02-28T00:06:27.783Z,95.82
2023-02-28T00:08:55.724Z,95.59
2023-02-28T00:11:30.688Z,94.84
2023-02-28T00:13:59.266Z,93.98
2023-02-28T00:16:27.478Z,93.83
2023-02-28T00:18:55.256Z,95.29
2023-02-28T00:21:23.103Z,95.71
2023-02-28T00:23:50.930Z,95.08
2023-02-28T00:26:21.541Z,94.40
2023-02-28T00:28:50.798Z,94.58
2023-02-28T00:31:18.728Z,95.30
2023-02-28T00:33:46.637Z,94.22
2023-02-28T00:36:17.110Z,93.34
2023-02-28T00:38:45.635Z,94.54
2023-02-28T00:41:14.070Z,94.83
2023-02-28T00:43:43.848Z,93.96
2023-02-28T00:46:12.652Z,94.18
2023-02-28T00:48:40.632Z,94.25
2023-02-28T00:51:08.423Z,94.60
2023-02-28T00:53:39.021Z,95.46
2023-02-28T00:56:07.003Z,95.96
2023-02-28T00:58:35.577Z,95.76
2023-02-28T01:01:03.495Z,95.22
2023-02-28T01:03:32.469Z,95.37
2023-02-28T01:06:00.617Z,95.73
2023-02-28T01:08:28.759Z,95.22
2023-02-28T01:10:58.620Z,94.70
2023-02-28T01:13:26.776Z,94.16
2023-02-28T01:15:56.737Z,93.66
2023-02-28T01:18:25.912Z,94.51
2023-02-28T01:20:54.073Z,94.19
2023-02-28T01:23:22.928Z,94.53
2023-02-28T01:25:54.297Z,94.58
2023-02-28T01:28:22.277Z,94.68
2023-02-28T01:30:51.748Z,93.87
2023-02-28T01:33:19.951Z,93.49
2023-02-28T01:35:47.811Z,94.87
2023-02-28T01:38:22.681Z,94.21
2023-02-28T01:40:51.218Z,94.56
2023-02-28T01:43:27.039Z,94.29
2023-02-28T01:45:57.733Z,94.90
2023-02-28T01:48:37.016Z,95.19
2023-02-28T01:51:07.967Z,94.65
2023-02-28T01:53:44.073Z,94.82
2023-02-28T01:56:12.460Z,93.74
2023-02-28T01:58:40.576Z,93.88
2023-02-28T02:01:08.370Z,93.49
2023-02-28T02:03:36.647Z,94.10
2023-02-28T02:06:04.763Z,94.03
2023-02-28T02:08:34.107Z,93.70
2023-02-28T02:11:02.607Z,94.09
2023-02-28T02:13:54.476Z,93.25
2023-02-28T02:16:47.195Z,92.29
2023-02-28T02:19:56.928Z,92.24
2023-02-28T02:22:51.972Z,91.52
2023-02-28T02:25:52.361Z,91.29
2023-02-28T02:28:41.618Z,93.38
2023-02-28T02:31:30.389Z,91.75
2023-02-28T02:34:11.950Z,91.28
2023-02-28T02:36:50.397Z,90.89
2023-02-28T02:39:44.035Z,91.94
2023-02-28T02:42:41.060Z,91.51
2023-02-28T02:45:20.144Z,91.79
2023-02-28T02:47:49.824Z,92.36
2023-02-28T02:50:24.156Z,92.41
2023-02-28T02:52:56.971Z,91.32
2023-02-28T02:55:25.168Z,90.91
2023-02-28T02:57:58.613Z,91.59
2023-02-28T03:00:29.655Z,91.29
2023-02-28T03:02:57.416Z,91.77
2023-02-28T03:05:37.271Z,91.61
2023-02-28T03:08:06.688Z,91.80
2023-02-28T03:10:38.933Z,91.24
2023-02-28T03:13:44.531Z,91.51
2023-02-28T03:16:15.647Z,90.00
2023-02-28T03:19:06.305Z,91.41
2023-02-28T03:22:04.115Z,91.68
2023-02-28T03:24:49.523Z,92.49
2023-02-28T03:27:29.165Z,91.70
2023-02-28T03:30:05.846Z,91.39
2023-02-28T03:32:38.132Z,91.18
2023-02-28T03:35:31.060Z,90.95
2023-02-28T03:38:04.788Z,91.86
2023-02-28T03:40:34.096Z,91.69
2023-02-28T03:43:04.863Z,90.59
2023-02-28T03:45:34.659Z,90.96
2023-02-28T03:48:06.821Z,91.51
2023-02-28T03:50:39.564Z,91.89
2023-02-28T03:53:21.617Z,90.76
2023-02-28T03:56:09.623Z,90.07
2023-02-28T03:58:58.498Z,90.48
2023-02-28T04:01:28.935Z,90.81
2023-02-28T04:03:57.025Z,89.96
2023-02-28T04:06:25.097Z,89.35
2023-02-28T04:08:52.943Z,90.03
2023-02-28T04:11:38.902Z,88.73
2023-02-28T04:14:07.295Z,88.49
2023-02-28T04:16:36.210Z,88.38
2023-02-28T04:19:06.270Z,89.01
2023-02-28T04:21:36.663Z,88.18
2023-02-28T04:24:07.046Z,87.83
2023-02-28T04:26:36.734Z,87.39
2023-02-28T04:29:05.855Z,87.29
2023-02-28T04:31:34.797Z,87.05
2023-02-28T04:34:02.978Z,87.89
2023-02-28T04:36:31.621Z,88.38
2023-02-28T04:39:01.132Z,87.23
2023-02-28T04:41:32.623Z,86.59
2023-02-28T04:44:00.882Z,87.27
2023-02-28T04:46:29.236Z,88.25
2023-02-28T04:48:56.923Z,87.16
2023-02-28T04:51:25.497Z,87.46
2023-02-28T04:53:55.908Z,87.66
2023-02-28T04:56:23.964Z,87.26
2023-02-28T04:58:54.211Z,88.25
2023-02-28T05:01:24.725Z,87.34
2023-02-28T05:03:53.476Z,86.70
2023-02-28T05:06:27.190Z,86.58
2023-02-28T05:08:55.375Z,87.01
2023-02-28T05:11:28.663Z,88.29
2023-02-28T05:13:56.635Z,87.83
2023-02-28T05:16:24.381Z,87.64
2023-02-28T05:18:55.558Z,87.87
2023-02-28T05:21:41.756Z,87.38
2023-02-28T05:24:13.852Z,87.33
2023-02-28T05:26:42.818Z,87.43
2023-02-28T05:29:10.811Z,87.47
2023-02-28T05:31:39.790Z,87.18
2023-02-28T05:34:07.768Z,86.88
2023-02-28T05:36:38.131Z,87.41
2023-02-28T05:39:13.827Z,87.18
2023-02-28T05:41:44.807Z,88.02
2023-02-28T05:44:13.580Z,87.23
2023-02-28T05:46:45.464Z,87.10
2023-02-28T05:49:14.089Z,87.35
2023-02-28T05:51:42.192Z,86.77
2023-02-28T05:54:13.562Z,87.57
2023-02-28T05:56:45.399Z,87.00
2023-02-28T05:59:14.425Z,85.70
2023-02-28T06:01:46.388Z,86.28
2023-02-28T06:04:30.390Z,87.43
2023-02-28T06:06:58.943Z,87.12
2023-02-28T06:09:32.655Z,86.42
2023-02-28T06:12:01.707Z,86.79
2023-02-28T06:14:29.901Z,86.87
2023-02-28T06:17:02.183Z,87.32
2023-02-28T06:19:31.407Z,87.49
2023-02-28T06:22:00.855Z,85.63
2023-02-28T06:24:29.574Z,86.20
2023-02-28T06:27:00.014Z,85.79
2023-02-28T06:29:28.106Z,85.40
2023-02-28T06:31:56.650Z,85.66
2023-02-28T06:34:25.130Z,85.97
2023-02-28T06:36:53.413Z,85.05
2023-02-28T06:39:26.384Z,85.61
2023-02-28T06:41:56.194Z,86.12
2023-02-28T06:44:24.721Z,84.78
2023-02-28T06:46:52.920Z,84.56
2023-02-28T06:49:25.725Z,85.28
2023-02-28T06:52:01.829Z,84.13
2023-02-28T06:54:30.206Z,84.83
2023-02-28T06:56:59.301Z,83.50
2023-02-28T06:59:27.445Z,83.24
2023-02-28T07:01:56.498Z,84.71
2023-02-28T07:04:25.328Z,84.54
2023-02-28T07:06:58.428Z,86.10
2023-02-28T07:09:31.271Z,86.13
2023-02-28T07:12:03.108Z,85.52
2023-02-28T07:14:31.742Z,85.60
2023-02-28T07:16:59.966Z,85.58
2023-02-28T07:19:42.459Z,86.81
2023-02-28T07:22:10.881Z,84.08
2023-02-28T07:24:42.411Z,84.90
2023-02-28T07:27:28.118Z,84.67
2023-02-28T07:30:02.949Z,85.87
2023-02-28T07:32:32.305Z,85.27
2023-02-28T07:35:00.962Z,84.04
2023-02-28T07:37:32.824Z,83.45
2023-02-28T07:40:03.365Z,82.57
2023-02-28T07:42:33.503Z,83.18
2023-02-28T07:45:05.364Z,84.14
2023-02-28T07:47:35.903Z,82.65
2023-02-28T07:50:41.358Z,83.67
2023-02-28T07:53:09.575Z,84.22
2023-02-28T07:55:41.665Z,84.32
2023-02-28T07:58:14.000Z,82.18
2023-02-28T08:00:42.386Z,81.50
2023-02-28T08:03:13.278Z,80.79
2023-02-28T08:05:41.590Z,81.21
2023-02-28T08:08:12.409Z,81.55
2023-02-28T08:10:57.384Z,80.81
2023-02-28T08:13:25.896Z,80.09
2023-02-28T08:15:56.102Z,80.69
2023-02-28T08:18:24.289Z,81.75
2023-02-28T08:20:55.630Z,81.54
2023-02-28T08:23:24.699Z,81.93
2023-02-28T08:25:57.132Z,81.26
2023-02-28T08:28:27.799Z,83.17
2023-02-28T08:30:56.602Z,81.79
2023-02-28T08:33:28.248Z,83.19
2023-02-28T08:35:57.034Z,82.53
2023-02-28T08:38:25.344Z,81.91
2023-02-28T08:41:00.882Z,80.20
2023-02-28T08:43:30.383Z,80.21
2023-02-28T08:46:01.834Z,81.19
2023-02-28T08:48:30.863Z,80.11
2023-02-28T08:51:07.328Z,79.97
2023-02-28T08:53:38.423Z,79.28
2023-02-28T08:56:12.870Z,78.81
2023-02-28T08:58:45.127Z,78.07
2023-02-28T09:01:31.972Z,77.29
2023-02-28T09:04:19.817Z,76.64
2023-02-28T09:06:50.809Z,76.55
2023-02-28T09:09:23.545Z,77.46
2023-02-28T09:12:06.453Z,78.72
2023-02-28T09:14:38.831Z,76.74
2023-02-28T09:17:12.749Z,75.68
2023-02-28T09:19:47.220Z,74.75
2023-02-28T09:22:27.551Z,77.37
2023-02-28T09:24:58.662Z,75.06
2023-02-28T09:27:30.402Z,74.59
2023-02-28T09:30:05.713Z,76.40
2023-02-28T09:32:55.773Z,75.59
2023-02-28T09:35:35.608Z,74.63
2023-02-28T09:38:04.907Z,73.76
2023-02-28T09:40:48.897Z,73.80
2023-02-28T09:43:42.439Z,73.75
2023-02-28T09:46:48.831Z,74.59
2023-02-28T09:49:23.647Z,74.27
2023-02-28T09:52:19.100Z,75.59
2023-02-28T09:58:04.872Z,76.36
2023-02-28T10:00:41.702Z,76.77
2023-02-28T10:03:26.496Z,75.75
2023-02-28T10:09:12.716Z,75.87
2023-02-28T10:11:59.082Z,75.45
2023-02-28T10:14:35.436Z,76.88
2023-02-28T10:17:49.342Z,76.14
2023-02-28T10:20:34.204Z,74.92
2023-02-28T10:23:17.468Z,73.70
2023-02-28T10:26:00.508Z,73.75
2023-02-28T10:28:37.025Z,73.64
2023-02-28T10:31:18.728Z,73.83
2023-02-28T10:33:53.423Z,74.22
2023-02-28T10:36:25.408Z,74.93
2023-02-28T10:38:55.408Z,74.12
2023-02-28T10:41:41.479Z,72.49
2023-02-28T10:44:26.594Z,73.65
2023-02-28T10:47:05.883Z,72.62
2023-02-28T10:49:35.937Z,73.49
2023-02-28T10:52:09.087Z,74.02
2023-02-28T10:54:44.388Z,73.67
2023-02-28T10:57:25.698Z,73.79
2023-02-28T10:59:56.926Z,74.29
2023-02-28T11:02:42.071Z,72.92
2023-02-28T11:09:09.432Z,74.63
2023-02-28T11:11:46.711Z,72.54
2023-02-28T11:14:44.367Z,73.73
2023-02-28T11:17:26.743Z,74.29
2023-02-28T11:19:58.178Z,74.34
2023-02-28T11:22:30.032Z,74.58
2023-02-28T11:25:04.911Z,75.34
2023-02-28T11:27:35.064Z,74.32
2023-02-28T11:30:09.941Z,72.25
2023-02-28T11:32:42.043Z,72.09
2023-02-28T11:35:11.087Z,72.70
2023-02-28T11:37:48.041Z,72.60
2023-02-28T11:40:20.802Z,72.63
2023-02-28T11:43:15.926Z,73.55
2023-02-28T11:46:13.314Z,73.75
2023-02-28T11:49:10.245Z,72.78
2023-02-28T11:51:59.501Z,72.65
2023-02-28T11:55:00.526Z,70.79
2023-02-28T11:57:33.054Z,70.47
2023-02-28T12:00:31.385Z,69.60
2023-02-28T12:03:24.477Z,69.03
2023-02-28T12:06:14.295Z,70.57
2023-02-28T12:09:15.126Z,70.52
2023-02-28T12:11:57.194Z,69.73
2023-02-28T12:14:40.300Z,69.49
2023-02-28T12:17:24.745Z,69.97
2023-02-28T12:19:56.754Z,69.63
2023-02-28T12:22:43.866Z,68.76
2023-02-28T12:25:57.514Z,68.35
2023-02-28T12:28:32.602Z,70.59
2023-02-28T12:31:13.831Z,70.40
2023-02-28T12:33:49.882Z,68.99
2023-02-28T12:36:22.655Z,69.08
2023-02-28T12:39:17.051Z,68.49
2023-02-28T12:42:04.091Z,69.02
2023-02-28T12:48:05.140Z,69.10
2023-02-28T12:57:34.922Z,68.74
2023-02-28T13:00:34.935Z,68.43
2023-02-28T13:04:06.375Z,67.83
2023-02-28T13:06:57.996Z,67.08
2023-02-28T13:09:36.088Z,65.06
2023-02-28T13:12:16.699Z,65.25
2023-02-28T13:14:46.191Z,64.84
2023-02-28T13:17:22.443Z,64.47
2023-02-28T13:19:55.365Z,66.70
2023-02-28T13:22:26.498Z,67.76
2023-02-28T13:24:55.391Z,66.67
2023-02-28T13:27:34.112Z,64.80
2023-02-28T13:30:04.890Z,63.27
2023-02-28T13:35:38.157Z,64.50
2023-02-28T13:38:17.098Z,63.98
2023-02-28T13:40:46.690Z,62.13
2023-02-28T13:43:25.296Z,61.07
2023-02-28T13:46:13.935Z,62.63
2023-02-28T13:48:46.043Z,65.01
2023-02-28T13:51:42.883Z,63.73
2023-02-28T13:54:40.456Z,62.11
2023-02-28T13:57:29.674Z,62.36
2023-02-28T14:00:24.097Z,61.62
2023-02-28T14:03:55.209Z,61.13
2023-02-28T14:06:50.713Z,61.93
2023-02-28T14:09:42.798Z,63.37
2023-02-28T14:17:02.181Z,63.81
2023-02-28T14:19:53.247Z,62.80
2023-02-28T14:22:31.823Z,63.46
2023-02-28T14:25:29.456Z,64.98
2023-02-28T14:28:35.279Z,66.84
2023-02-28T14:31:26.244Z,64.61
2023-02-28T14:34:20.067Z,66.39
2023-02-28T14:36:48.943Z,68.48
2023-02-28T14:39:24.321Z,67.85
2023-02-28T14:41:55.735Z,68.66
2023-02-28T14:44:26.774Z,69.13
2023-02-28T14:47:06.817Z,70.44
2023-02-28T14:49:52.528Z,69.29
2023-02-28T14:52:22.698Z,69.67
2023-02-28T14:55:02.256Z,69.78
2023-02-28T14:57:37.671Z,69.71
2023-02-28T15:00:12.851Z,70.88
2023-02-28T15:02:41.510Z,70.96
2023-02-28T15:05:28.071Z,71.18
2023-02-28T15:08:30.754Z,71.12
2023-02-28T15:11:02.324Z,72.22
2023-02-28T15:13:47.452Z,71.83
2023-02-28T15:16:26.595Z,71.18
2023-02-28T15:18:58.505Z,70.12
2023-02-28T15:21:34.105Z,70.97
2023-02-28T15:24:27.724Z,71.33
2023-02-28T15:26:57.747Z,71.14
2023-02-28T15:29:29.653Z,72.39
2023-02-28T15:32:11.103Z,73.46
2023-02-28T15:34:44.727Z,73.16
2023-02-28T15:37:34.622Z,72.31
2023-02-28T15:40:15.277Z,72.68
2023-02-28T15:42:45.112Z,72.74
2023-02-28T15:45:49.211Z,73.58
2023-02-28T15:48:32.047Z,72.10
2023-02-28T15:51:11.212Z,72.14
2023-02-28T15:53:58.218Z,72.09
2023-02-28T15:56:31.138Z,72.88
2023-02-28T15:59:00.296Z,73.00
2023-02-28T16:01:31.440Z,72.68
2023-02-28T16:04:01.853Z,73.19
2023-02-28T16:06:38.272Z,72.25
2023-02-28T16:09:11.116Z,72.93
2023-02-28T16:11:51.982Z,73.04
2023-02-28T16:14:28.208Z,73.54
2023-02-28T16:17:10.042Z,73.56
2023-02-28T16:19:38.006Z,72.91
2023-02-28T16:22:07.228Z,73.42
2023-02-28T16:24:35.454Z,73.70
2023-02-28T16:27:06.747Z,73.27
2023-02-28T16:29:36.356Z,73.31
2023-02-28T16:32:07.542Z,72.71
2023-02-28T16:34:37.624Z,73.81
2023-02-28T16:37:10.980Z,73.50
2023-02-28T16:39:41.038Z,73.42
2023-02-28T16:42:22.982Z,72.98
2023-02-28T16:44:50.864Z,73.30
2023-02-28T16:47:18.778Z,72.46
2023-02-28T16:49:49.492Z,72.30
2023-02-28T16:52:17.640Z,72.64
2023-02-28T16:54:45.676Z,72.91
2023-02-28T16:57:23.299Z,72.98
2023-02-28T16:59:54.006Z,73.52
2023-02-28T17:02:22.315Z,74.38
2023-02-28T17:04:50.353Z,73.85
2023-02-28T17:07:18.465Z,74.18
2023-02-28T17:09:46.840Z,74.45
2023-02-28T17:12:15.642Z,75.40
2023-02-28T17:14:45.145Z,74.86
2023-02-28T17:17:21.391Z,74.76
2023-02-28T17:19:54.421Z,75.17
2023-02-28T17:22:22.752Z,74.75
2023-02-28T17:24:51.933Z,74.91
2023-02-28T17:27:20.503Z,74.10
2023-02-28T17:29:49.279Z,74.35
2023-02-28T17:32:18.664Z,74.73
2023-02-28T17:34:47.262Z,74.22
2023-02-28T17:37:17.563Z,74.14
2023-02-28T17:39:45.495Z,74.48
2023-02-28T17:42:17.397Z,74.33
2023-02-28T17:44:46.313Z,74.13
2023-02-28T17:47:14.273Z,73.74
2023-02-28T17:49:42.867Z,73.87
2023-02-28T17:52:10.708Z,74.40
2023-02-28T17:54:39.869Z,74.81
2023-02-28T17:57:11.464Z,74.17
2023-02-28T17:59:39.711Z,74.02
2023-02-28T18:02:08.029Z,74.92
2023-02-28T18:04:36.020Z,74.61
2023-02-28T18:07:04.013Z,74.01
2023-02-28T18:09:31.733Z,74.33
2023-02-28T18:11:59.426Z,74.46
2023-02-28T18:14:27.584Z,74.10
2023-02-28T18:16:57.670Z,74.03
2023-02-28T18:19:26.200Z,74.51
2023-02-28T18:21:55.053Z,74.97
2023-02-28T18:24:23.298Z,74.08
2023-02-28T18:26:51.717Z,74.98
2023-02-28T18:29:27.557Z,74.78
2023-02-28T18:31:56.110Z,75.29
2023-02-28T18:34:24.382Z,75.07
2023-02-28T18:36:52.588Z,75.06
2023-02-28T18:39:20.610Z,75.37
2023-02-28T18:41:48.915Z,75.47
2023-02-28T18:44:20.156Z,75.66
2023-02-28T18:46:51.097Z,74.83
2023-02-28T18:49:19.214Z,74.77
2023-02-28T18:51:47.317Z,75.17
2023-02-28T18:54:16.831Z,75.38
2023-02-28T18:56:45.148Z,75.46
2023-02-28T18:59:13.123Z,75.57
2023-02-28T19:01:41.211Z,75.55
2023-02-28T19:04:12.386Z,75.07
2023-02-28T19:06:40.281Z,76.47
2023-02-28T19:09:09.018Z,75.90
2023-02-28T19:11:37.303Z,76.23
2023-02-28T19:14:09.753Z,76.69
2023-02-28T19:16:37.882Z,76.17
2023-02-28T19:19:05.912Z,76.80
2023-02-28T19:21:36.840Z,76.93
2023-02-28T19:24:04.943Z,76.89
2023-02-28T19:26:37.884Z,77.04
2023-02-28T19:29:05.632Z,77.55
2023-02-28T19:31:33.851Z,77.34
2023-02-28T19:34:01.968Z,77.85
2023-02-28T19:36:29.894Z,78.40
2023-02-28T19:38:57.896Z,77.03
2023-02-28T19:41:25.619Z,77.16
2023-02-28T19:43:54.335Z,76.90
2023-02-28T19:46:21.922Z,77.10
2023-02-28T19:48:49.913Z,77.42
2023-02-28T19:53:46.310Z,77.58
2023-02-28T19:56:14.513Z,77.34
2023-02-28T19:58:42.132Z,77.63
2023-02-28T20:01:14.073Z,78.04
2023-02-28T20:03:42.176Z,77.43
2023-02-28T20:06:11.290Z,77.06
2023-02-28T20:08:39.546Z,77.32
2023-02-28T20:11:12.552Z,76.76
2023-02-28T20:13:40.583Z,76.94
2023-02-28T20:16:09.830Z,77.48
2023-02-28T20:18:38.368Z,77.44
2023-02-28T20:21:08.736Z,77.96
2023-02-28T20:23:38.826Z,78.04
2023-02-28T20:26:06.582Z,77.79
2023-02-28T20:28:34.357Z,78.46
2023-02-28T20:31:02.056Z,78.33
2023-02-28T20:33:30.072Z,77.01
2023-02-28T20:35:59.767Z,77.56
2023-02-28T20:38:28.251Z,77.79
2023-02-28T20:40:56.697Z,76.63
2023-02-28T20:43:25.152Z,77.56
2023-02-28T20:45:58.479Z,77.08
2023-02-28T20:48:26.982Z,77.35
2023-02-28T20:50:56.157Z,77.19
2023-02-28T20:53:24.681Z,77.57
2023-02-28T20:56:00.269Z,77.70
2023-02-28T20:58:34.550Z,77.72
2023-02-28T21:01:03.639Z,77.23
2023-02-28T21:03:31.596Z,76.85
2023-02-28T21:06:03.185Z,76.16
2023-02-28T21:08:34.698Z,77.69
2023-02-28T21:11:02.613Z,76.72
2023-02-28T21:13:30.669Z,77.15
2023-02-28T21:16:09.873Z,77.38
2023-02-28T21:18:38.925Z,78.17
2023-02-28T21:21:17.524Z,79.31
2023-02-28T21:23:46.920Z,79.42
2023-02-28T21:26:19.550Z,79.68
2023-02-28T21:28:51.023Z,79.78
2023-02-28T21:31:19.890Z,80.29
2023-02-28T21:33:47.925Z,79.71
2023-02-28T21:36:18.065Z,78.46
2023-02-28T21:38:46.090Z,79.66
2023-02-28T21:41:21.162Z,80.50
2023-02-28T21:43:49.154Z,79.65
2023-02-28T21:46:20.818Z,80.74
2023-02-28T21:48:49.267Z,80.42
2023-02-28T21:51:21.806Z,80.83
2023-02-28T21:53:49.937Z,80.24
2023-02-28T21:56:25.311Z,81.18
2023-02-28T21:59:00.700Z,80.91
2023-02-28T22:01:32.734Z,80.32
2023-02-28T22:04:01.237Z,80.01
2023-02-28T22:06:31.105Z,80.17
2023-02-28T22:09:02.171Z,81.21
2023-02-28T22:11:29.949Z,81.44
2023-02-28T22:13:59.303Z,80.87
2023-02-28T22:16:33.205Z,81.81
2023-02-28T22:19:08.004Z,82.37
2023-02-28T22:21:36.120Z,81.48
2023-02-28T22:24:04.366Z,82.71
2023-02-28T22:26:33.133Z,82.14
2023-02-28T22:29:02.781Z,81.43
2023-02-28T22:31:31.775Z,80.16
2023-02-28T22:34:02.344Z,82.05
2023-02-28T22:36:30.597Z,82.61
2023-02-28T22:38:58.438Z,81.71
2023-02-28T22:41:26.785Z,82.46
2023-02-28T22:43:56.546Z,82.05
2023-02-28T22:46:24.652Z,82.40
2023-02-28T22:48:52.768Z,82.00
2023-02-28T22:51:22.333Z,82.88
2023-02-28T22:53:50.367Z,83.37
2023-02-28T22:56:20.555Z,83.60
2023-02-28T22:58:52.541Z,84.27
2023-02-28T23:01:20.935Z,83.41
2023-02-28T23:03:48.964Z,83.69
2023-02-28T23:06:30.471Z,84.50
2023-02-28T23:09:03.788Z,84.62
2023-02-28T23:11:33.516Z,84.37
2023-02-28T23:14:01.247Z,84.92
2023-02-28T23:16:37.629Z,84.81
2023-02-28T23:19:08.571Z,84.42
2023-02-28T23:21:36.094Z,85.61
2023-02-28T23:24:04.994Z,85.04
2023-02-28T23:26:33.086Z,85.54
2023-02-28T23:29:01.374Z,86.01
2023-02-28T23:31:30.537Z,86.33
2023-02-28T23:34:02.679Z,86.12
2023-02-28T23:36:32.458Z,86.26
2023-02-28T23:39:00.416Z,86.25
2023-02-28T23:41:28.148Z,84.74
2023-02-28T23:43:56.319Z,83.62
2023-02-28T23:46:23.985Z,83.75
2023-02-28T23:48:51.503Z,83.56
2023-02-28T23:51:20.651Z,84.73
2023-02-28T23:53:49.713Z,85.68
2023-02-28T23:56:19.300Z,87.36
2023-02-28T23:58:48.390Z,86.87
